sensor_id;sensor_type;location;lat;lon;timestamp;P1;durP1;ratioP1;P2;durP2;ratioP2
18596;SDS011;9428;50.950;6.912;2023-10-09T00:01:39;28.05;;;12.18;;
18596;SDS011;9428;50.950;6.912;2023-10-09T00:04:28;21.85;;;11.68;;
18596;SDS011;9428;50.950;6.912;2023-10-09T00:07:15;20.42;;;11.65;;
18596;SDS011;9428;50.950;6.912;2023-10-09T00:10:03;23.92;;;11.05;;
18596;SDS011;9428;50.950;6.912;2023-10-09T00:12:58;21.85;;;11.38;;
18596;SDS011;9428;50.950;6.912;2023-10-09T00:15:45;22.23;;;12.15;;
18596;SDS011;9428;50.950;6.912;2023-10-09T00:18:39;18.88;;;10.57;;
18596;SDS011;9428;50.950;6.912;2023-10-09T00:21:31;20.08;;;10.80;;
18596;SDS011;9428;50.950;6.912;2023-10-09T00:24:20;22.65;;;10.75;;
18596;SDS011;9428;50.950;6.912;2023-10-09T00:27:08;21.60;;;10.35;;
18596;SDS011;9428;50.950;6.912;2023-10-09T00:29:57;17.90;;;10.13;;
18596;SDS011;9428;50.950;6.912;2023-10-09T00:32:45;21.65;;;11.20;;
18596;SDS011;9428;50.950;6.912;2023-10-09T00:35:45;21.58;;;11.40;;
18596;SDS011;9428;50.950;6.912;2023-10-09T00:38:39;17.35;;;11.30;;
18596;SDS011;9428;50.950;6.912;2023-10-09T00:41:31;19.52;;;10.93;;
18596;SDS011;9428;50.950;6.912;2023-10-09T00:44:20;17.25;;;11.25;;
18596;SDS011;9428;50.950;6.912;2023-10-09T00:47:08;22.27;;;11.02;;
18596;SDS011;9428;50.950;6.912;2023-10-09T00:50:07;19.30;;;10.25;;
18596;SDS011;9428;50.950;6.912;2023-10-09T00:53:07;18.15;;;10.27;;
18596;SDS011;9428;50.950;6.912;2023-10-09T00:55:57;19.30;;;10.73;;
18596;SDS011;9428;50.950;6.912;2023-10-09T20:10:42;16.08;;;8.70;;
18596;SDS011;9428;50.950;6.912;2023-10-09T20:13:29;19.15;;;8.32;;
18596;SDS011;9428;50.950;6.912;2023-10-09T20:16:19;19.92;;;8.75;;
18596;SDS011;9428;50.950;6.912;2023-10-09T20:19:10;17.48;;;8.63;;
18596;SDS011;9428;50.950;6.912;2023-10-09T20:21:57;17.15;;;9.73;;
18596;SDS011;9428;50.950;6.912;2023-10-09T20:24:45;15.15;;;8.23;;
18596;SDS011;9428;50.950;6.912;2023-10-09T20:27:33;12.68;;;8.35;;
18596;SDS011;9428;50.950;6.912;2023-10-09T20:30:21;13.55;;;8.45;;
18596;SDS011;9428;50.950;6.912;2023-10-09T20:33:09;14.85;;;8.30;;
18596;SDS011;9428;50.950;6.912;2023-10-09T20:35:56;16.08;;;8.65;;
18596;SDS011;9428;50.950;6.912;2023-10-09T20:38:48;14.50;;;8.68;;
18596;SDS011;9428;50.950;6.912;2023-10-09T20:41:37;17.60;;;9.48;;
18596;SDS011;9428;50.950;6.912;2023-10-09T20:44:25;18.17;;;9.35;;
18596;SDS011;9428;50.950;6.912;2023-10-09T20:47:14;23.58;;;10.40;;
18596;SDS011;9428;50.950;6.912;2023-10-09T20:50:01;15.45;;;9.43;;
18596;SDS011;9428;50.950;6.912;2023-10-09T20:52:52;20.40;;;9.43;;
18596;SDS011;9428;50.950;6.912;2023-10-09T20:55:40;16.05;;;9.02;;
18596;SDS011;9428;50.950;6.912;2023-10-09T20:58:27;15.80;;;9.75;;
18596;SDS011;9428;50.950;6.912;2023-10-09T21:01:16;15.52;;;9.75;;
18596;SDS011;9428;50.950;6.912;2023-10-09T21:04:03;16.63;;;8.73;;
18596;SDS011;9428;50.950;6.912;2023-10-09T21:06:51;18.05;;;10.40;;
18596;SDS011;9428;50.950;6.912;2023-10-09T21:09:39;19.80;;;10.13;;
18596;SDS011;9428;50.950;6.912;2023-10-09T21:12:26;19.42;;;10.13;;
18596;SDS011;9428;50.950;6.912;2023-10-09T21:15:14;17.40;;;10.15;;
18596;SDS011;9428;50.950;6.912;2023-10-09T21:18:04;18.35;;;10.45;;
18596;SDS011;9428;50.950;6.912;2023-10-09T21:20:51;18.20;;;10.80;;
18596;SDS011;9428;50.950;6.912;2023-10-09T21:23:39;18.95;;;10.75;;
18596;SDS011;9428;50.950;6.912;2023-10-09T21:26:27;16.55;;;10.63;;
18596;SDS011;9428;50.950;6.912;2023-10-09T21:29:15;18.52;;;11.23;;
18596;SDS011;9428;50.950;6.912;2023-10-09T21:32:04;18.40;;;11.15;;
18596;SDS011;9428;50.950;6.912;2023-10-09T21:34:53;18.42;;;10.43;;
18596;SDS011;9428;50.950;6.912;2023-10-09T21:37:41;22.83;;;11.43;;
18596;SDS011;9428;50.950;6.912;2023-10-09T21:40:29;20.02;;;11.18;;
18596;SDS011;9428;50.950;6.912;2023-10-09T21:43:18;18.05;;;10.38;;
18596;SDS011;9428;50.950;6.912;2023-10-09T21:46:06;20.83;;;13.27;;
18596;SDS011;9428;50.950;6.912;2023-10-09T21:48:54;20.90;;;11.80;;
18596;SDS011;9428;50.950;6.912;2023-10-09T21:51:43;15.85;;;11.43;;
18596;SDS011;9428;50.950;6.912;2023-10-09T21:54:30;21.48;;;11.30;;
18596;SDS011;9428;50.950;6.912;2023-10-09T21:57:18;21.15;;;11.07;;
18596;SDS011;9428;50.950;6.912;2023-10-09T22:00:05;17.27;;;11.65;;
18596;SDS011;9428;50.950;6.912;2023-10-09T22:03:00;21.30;;;10.95;;
18596;SDS011;9428;50.950;6.912;2023-10-09T22:05:50;16.67;;;10.48;;
18596;SDS011;9428;50.950;6.912;2023-10-09T22:08:39;17.02;;;10.45;;
18596;SDS011;9428;50.950;6.912;2023-10-09T22:11:26;18.17;;;11.00;;
18596;SDS011;9428;50.950;6.912;2023-10-09T22:14:14;18.52;;;11.40;;
18596;SDS011;9428;50.950;6.912;2023-10-09T22:17:01;18.20;;;10.95;;
18596;SDS011;9428;50.950;6.912;2023-10-09T22:19:49;16.35;;;10.23;;
18596;SDS011;9428;50.950;6.912;2023-10-09T22:22:36;18.63;;;9.52;;
18596;SDS011;9428;50.950;6.912;2023-10-09T22:25:30;17.55;;;10.05;;
18596;SDS011;9428;50.950;6.912;2023-10-09T22:28:22;19.27;;;10.70;;
18596;SDS011;9428;50.950;6.912;2023-10-09T22:31:09;18.15;;;10.40;;
18596;SDS011;9428;50.950;6.912;2023-10-09T22:33:58;13.25;;;9.60;;
18596;SDS011;9428;50.950;6.912;2023-10-09T22:36:56;16.63;;;9.50;;
18596;SDS011;9428;50.950;6.912;2023-10-09T22:39:48;16.75;;;9.85;;
18596;SDS011;9428;50.950;6.912;2023-10-09T22:42:38;18.05;;;9.80;;
18596;SDS011;9428;50.950;6.912;2023-10-09T22:45:25;15.68;;;9.82;;
18596;SDS011;9428;50.950;6.912;2023-10-09T22:48:17;13.13;;;8.65;;
18596;SDS011;9428;50.950;6.912;2023-10-09T22:51:11;17.80;;;10.95;;
18596;SDS011;9428;50.950;6.912;2023-10-09T22:53:59;15.85;;;9.88;;
18596;SDS011;9428;50.950;6.912;2023-10-09T22:56:47;14.30;;;9.05;;
18596;SDS011;9428;50.950;6.912;2023-10-09T22:59:35;20.85;;;10.20;;
18596;SDS011;9428;50.950;6.912;2023-10-09T23:02:30;21.88;;;10.05;;
18596;SDS011;9428;50.950;6.912;2023-10-09T23:05:35;16.00;;;9.02;;
18596;SDS011;9428;50.950;6.912;2023-10-09T23:08:30;22.42;;;8.93;;
18596;SDS011;9428;50.950;6.912;2023-10-09T23:11:18;18.48;;;9.07;;
18596;SDS011;9428;50.950;6.912;2023-10-09T23:14:10;14.95;;;9.32;;
18596;SDS011;9428;50.950;6.912;2023-10-09T23:17:13;16.02;;;8.35;;
18596;SDS011;9428;50.950;6.912;2023-10-09T23:20:03;14.85;;;9.07;;
18596;SDS011;9428;50.950;6.912;2023-10-09T23:23:00;15.90;;;8.95;;
18596;SDS011;9428;50.950;6.912;2023-10-09T23:25:55;13.65;;;8.32;;
18596;SDS011;9428;50.950;6.912;2023-10-09T23:28:50;15.25;;;9.15;;
18596;SDS011;9428;50.950;6.912;2023-10-09T23:31:38;23.55;;;9.38;;
18596;SDS011;9428;50.950;6.912;2023-10-09T23:34:43;17.02;;;9.00;;
18596;SDS011;9428;50.950;6.912;2023-10-09T23:37:38;14.35;;;8.27;;
18596;SDS011;9428;50.950;6.912;2023-10-09T23:40:46;13.35;;;8.13;;
18596;SDS011;9428;50.950;6.912;2023-10-09T23:43:35;16.77;;;9.15;;
18596;SDS011;9428;50.950;6.912;2023-10-09T23:46:30;15.25;;;8.85;;
18596;SDS011;9428;50.950;6.912;2023-10-09T23:49:21;14.93;;;8.20;;
18596;SDS011;9428;50.950;6.912;2023-10-09T23:52:11;16.08;;;9.30;;
18596;SDS011;9428;50.950;6.912;2023-10-09T23:54:59;20.63;;;8.23;;
18596;SDS011;9428;50.950;6.912;2023-10-09T23:57:50;12.77;;;8.10;;
